sensor_id;sensor_type;location;lat;lon;timestamp;temperature;humidity
71047;SHT31;58703;48.978;8.982;2023-11-21T00:01:03;7.62;99.99
71047;SHT31;58703;48.978;8.982;2023-11-21T00:03:30;7.51;99.99
71047;SHT31;58703;48.978;8.982;2023-11-21T00:05:56;7.51;99.99
71047;SHT31;58703;48.978;8.982;2023-11-21T00:08:21;7.48;99.99
71047;SHT31;58703;48.978;8.982;2023-11-21T00:10:47;7.46;99.99
71047;SHT31;58703;48.978;8.982;2023-11-21T00:13:13;7.38;99.99
71047;SHT31;58703;48.978;8.982;2023-11-21T00:15:39;7.40;99.99
71047;SHT31;58703;48.978;8.982;2023-11-21T00:18:06;7.44;99.99
71047;SHT31;58703;48.978;8.982;2023-11-21T00:20:31;7.44;99.99
71047;SHT31;58703;48.978;8.982;2023-11-21T00:22:57;7.46;99.99
71047;SHT31;58703;48.978;8.982;2023-11-21T00:25:22;7.44;99.99
71047;SHT31;58703;48.978;8.982;2023-11-21T00:27:49;7.50;99.99
71047;SHT31;58703;48.978;8.982;2023-11-21T00:30:15;7.55;99.99
71047;SHT31;58703;48.978;8.982;2023-11-21T00:32:41;7.54;99.99
71047;SHT31;58703;48.978;8.982;2023-11-21T00:35:07;7.43;99.99
71047;SHT31;58703;48.978;8.982;2023-11-21T00:37:32;7.46;99.99
71047;SHT31;58703;48.978;8.982;2023-11-21T00:39:58;7.41;99.99
71047;SHT31;58703;48.978;8.982;2023-11-21T00:42:23;7.43;99.99
71047;SHT31;58703;48.978;8.982;2023-11-21T00:44:49;7.65;99.99
71047;SHT31;58703;48.978;8.982;2023-11-21T00:47:14;7.54;99.99
71047;SHT31;58703;48.978;8.982;2023-11-21T00:49:40;7.61;99.99
71047;SHT31;58703;48.978;8.982;2023-11-21T00:52:06;7.75;99.99
71047;SHT31;58703;48.978;8.982;2023-11-21T00:54:32;7.74;99.99
71047;SHT31;58703;48.978;8.982;2023-11-21T00:56:59;7.75;99.99
71047;SHT31;58703;48.978;8.982;2023-11-21T00:59:24;7.79;99.99
71047;SHT31;58703;48.978;8.982;2023-11-21T01:01:50;7.78;99.99
71047;SHT31;58703;48.978;8.982;2023-11-21T01:04:15;7.72;99.99
71047;SHT31;58703;48.978;8.982;2023-11-21T01:06:41;7.69;99.99
71047;SHT31;58703;48.978;8.982;2023-11-21T01:09:06;7.67;99.99
71047;SHT31;58703;48.978;8.982;2023-11-21T01:11:36;7.67;99.99
71047;SHT31;58703;48.978;8.982;2023-11-21T01:14:06;7.65;99.99
71047;SHT31;58703;48.978;8.982;2023-11-21T01:16:34;7.64;99.99
71047;SHT31;58703;48.978;8.982;2023-11-21T01:18:59;7.65;99.99
71047;SHT31;58703;48.978;8.982;2023-11-21T01:21:25;7.67;99.99
71047;SHT31;58703;48.978;8.982;2023-11-21T01:23:51;7.69;99.99
71047;SHT31;58703;48.978;8.982;2023-11-21T01:26:16;7.67;99.99
71047;SHT31;58703;48.978;8.982;2023-11-21T01:28:42;7.54;99.99
71047;SHT31;58703;48.978;8.982;2023-11-21T01:31:07;7.46;99.99
71047;SHT31;58703;48.978;8.982;2023-11-21T01:33:33;7.52;99.99
71047;SHT31;58703;48.978;8.982;2023-11-21T01:35:58;7.50;99.99
71047;SHT31;58703;48.978;8.982;2023-11-21T01:38:25;7.44;99.99
71047;SHT31;58703;48.978;8.982;2023-11-21T01:40:51;7.40;99.99
71047;SHT31;58703;48.978;8.982;2023-11-21T01:43:16;7.44;99.99
71047;SHT31;58703;48.978;8.982;2023-11-21T01:45:42;7.44;99.99
71047;SHT31;58703;48.978;8.982;2023-11-21T01:48:08;7.48;99.99
71047;SHT31;58703;48.978;8.982;2023-11-21T01:50:34;7.47;99.99
71047;SHT31;58703;48.978;8.982;2023-11-21T01:53:00;7.44;99.99
71047;SHT31;58703;48.978;8.982;2023-11-21T01:55:27;7.43;99.99
71047;SHT31;58703;48.978;8.982;2023-11-21T01:57:54;7.50;99.99
71047;SHT31;58703;48.978;8.982;2023-11-21T02:00:19;7.50;99.99
71047;SHT31;58703;48.978;8.982;2023-11-21T02:02:46;7.43;99.99
71047;SHT31;58703;48.978;8.982;2023-11-21T02:05:16;7.41;99.99
71047;SHT31;58703;48.978;8.982;2023-11-21T02:07:44;7.44;99.99
71047;SHT31;58703;48.978;8.982;2023-11-21T02:10:11;7.46;99.99
71047;SHT31;58703;48.978;8.982;2023-11-21T02:12:41;7.44;99.99
71047;SHT31;58703;48.978;8.982;2023-11-21T02:15:08;7.51;99.99
71047;SHT31;58703;48.978;8.982;2023-11-21T02:17:43;7.55;99.99
71047;SHT31;58703;48.978;8.982;2023-11-21T02:20:12;7.51;99.99
71047;SHT31;58703;48.978;8.982;2023-11-21T02:22:41;7.51;99.99
71047;SHT31;58703;48.978;8.982;2023-11-21T02:25:08;7.54;99.99
71047;SHT31;58703;48.978;8.982;2023-11-21T02:27:33;7.55;99.99
71047;SHT31;58703;48.978;8.982;2023-11-21T02:29:59;7.57;99.99
71047;SHT31;58703;48.978;8.982;2023-11-21T02:32:26;7.57;99.99
71047;SHT31;58703;48.978;8.982;2023-11-21T02:34:52;7.52;99.99
71047;SHT31;58703;48.978;8.982;2023-11-21T02:37:18;7.52;99.99
71047;SHT31;58703;48.978;8.982;2023-11-21T02:39:44;7.54;99.99
71047;SHT31;58703;48.978;8.982;2023-11-21T02:42:09;7.51;99.99
71047;SHT31;58703;48.978;8.982;2023-11-21T02:44:34;7.55;99.99
71047;SHT31;58703;48.978;8.982;2023-11-21T02:47:00;7.54;99.99
71047;SHT31;58703;48.978;8.982;2023-11-21T02:49:25;7.52;99.99
71047;SHT31;58703;48.978;8.982;2023-11-21T02:51:54;7.54;99.99
71047;SHT31;58703;48.978;8.982;2023-11-21T02:54:20;7.54;99.99
71047;SHT31;58703;48.978;8.982;2023-11-21T02:56:48;7.58;99.99
71047;SHT31;58703;48.978;8.982;2023-11-21T02:59:14;7.67;99.99
71047;SHT31;58703;48.978;8.982;2023-11-21T03:01:41;7.59;99.99
71047;SHT31;58703;48.978;8.982;2023-11-21T03:04:06;7.82;99.99
71047;SHT31;58703;48.978;8.982;2023-11-21T03:06:32;7.81;99.99
71047;SHT31;58703;48.978;8.982;2023-11-21T03:08:57;7.68;99.99
71047;SHT31;58703;48.978;8.982;2023-11-21T03:11:23;7.78;99.99
71047;SHT31;58703;48.978;8.982;2023-11-21T03:13:48;7.71;99.99
71047;SHT31;58703;48.978;8.982;2023-11-21T03:16:15;7.72;99.99
71047;SHT31;58703;48.978;8.982;2023-11-21T03:18:40;7.75;99.99
71047;SHT31;58703;48.978;8.982;2023-11-21T03:21:07;7.67;99.99
71047;SHT31;58703;48.978;8.982;2023-11-21T03:23:36;7.55;99.99
71047;SHT31;58703;48.978;8.982;2023-11-21T03:26:03;7.62;99.99
71047;SHT31;58703;48.978;8.982;2023-11-21T03:28:29;7.57;99.99
71047;SHT31;58703;48.978;8.982;2023-11-21T03:30:56;7.51;99.99
71047;SHT31;58703;48.978;8.982;2023-11-21T03:33:22;7.46;99.99
71047;SHT31;58703;48.978;8.982;2023-11-21T03:35:48;7.44;99.99
71047;SHT31;58703;48.978;8.982;2023-11-21T03:38:14;7.46;99.99
71047;SHT31;58703;48.978;8.982;2023-11-21T03:40:41;7.52;99.99
71047;SHT31;58703;48.978;8.982;2023-11-21T03:43:07;7.62;99.99
71047;SHT31;58703;48.978;8.982;2023-11-21T03:45:32;7.62;99.99
71047;SHT31;58703;48.978;8.982;2023-11-21T03:47:58;7.54;99.99
71047;SHT31;58703;48.978;8.982;2023-11-21T03:50:24;7.62;99.99
71047;SHT31;58703;48.978;8.982;2023-11-21T03:52:50;7.69;99.99
71047;SHT31;58703;48.978;8.982;2023-11-21T03:55:16;7.58;99.99
71047;SHT31;58703;48.978;8.982;2023-11-21T03:57:42;7.48;99.99
71047;SHT31;58703;48.978;8.982;2023-11-21T04:00:08;7.44;99.99
71047;SHT31;58703;48.978;8.982;2023-11-21T04:02:34;7.47;99.99
71047;SHT31;58703;48.978;8.982;2023-11-21T04:05:00;7.40;99.99
71047;SHT31;58703;48.978;8.982;2023-11-21T04:07:26;7.46;99.99
71047;SHT31;58703;48.978;8.982;2023-11-21T04:09:52;7.44;99.99
71047;SHT31;58703;48.978;8.982;2023-11-21T04:12:19;7.47;99.99
71047;SHT31;58703;48.978;8.982;2023-11-21T04:14:44;7.48;99.99
71047;SHT31;58703;48.978;8.982;2023-11-21T04:17:10;7.44;99.99
71047;SHT31;58703;48.978;8.982;2023-11-21T04:19:35;7.54;99.99
71047;SHT31;58703;48.978;8.982;2023-11-21T04:22:01;7.74;99.99
71047;SHT31;58703;48.978;8.982;2023-11-21T04:24:26;7.79;99.99
71047;SHT31;58703;48.978;8.982;2023-11-21T04:26:53;7.75;99.99
71047;SHT31;58703;48.978;8.982;2023-11-21T04:29:19;7.83;99.99
71047;SHT31;58703;48.978;8.982;2023-11-21T04:31:44;7.79;99.99
71047;SHT31;58703;48.978;8.982;2023-11-21T04:34:10;7.79;99.99
71047;SHT31;58703;48.978;8.982;2023-11-21T04:36:35;7.85;99.99
71047;SHT31;58703;48.978;8.982;2023-11-21T04:39:01;7.91;99.99
71047;SHT31;58703;48.978;8.982;2023-11-21T04:41:26;7.91;99.99
71047;SHT31;58703;48.978;8.982;2023-11-21T04:43:52;7.99;99.99
71047;SHT31;58703;48.978;8.982;2023-11-21T04:46:17;7.95;99.99
71047;SHT31;58703;48.978;8.982;2023-11-21T04:48:43;7.82;99.99
71047;SHT31;58703;48.978;8.982;2023-11-21T04:51:09;7.74;99.99
71047;SHT31;58703;48.978;8.982;2023-11-21T04:53:37;7.81;99.99
71047;SHT31;58703;48.978;8.982;2023-11-21T04:56:02;7.86;99.99
71047;SHT31;58703;48.978;8.982;2023-11-21T04:58:28;7.82;99.99
71047;SHT31;58703;48.978;8.982;2023-11-21T05:00:54;7.89;99.99
71047;SHT31;58703;48.978;8.982;2023-11-21T05:03:19;8.03;99.99
71047;SHT31;58703;48.978;8.982;2023-11-21T05:05:45;8.02;99.99
71047;SHT31;58703;48.978;8.982;2023-11-21T05:08:11;7.77;99.99
71047;SHT31;58703;48.978;8.982;2023-11-21T05:10:37;7.83;99.99
71047;SHT31;58703;48.978;8.982;2023-11-21T05:13:04;7.77;99.99
71047;SHT31;58703;48.978;8.982;2023-11-21T05:15:36;7.86;99.99
71047;SHT31;58703;48.978;8.982;2023-11-21T05:18:03;7.92;99.99
71047;SHT31;58703;48.978;8.982;2023-11-21T05:20:28;7.92;99.99
71047;SHT31;58703;48.978;8.982;2023-11-21T05:22:54;7.98;99.99
71047;SHT31;58703;48.978;8.982;2023-11-21T05:25:19;7.86;99.99
71047;SHT31;58703;48.978;8.982;2023-11-21T05:27:46;7.82;99.99
71047;SHT31;58703;48.978;8.982;2023-11-21T05:30:13;7.74;99.99
71047;SHT31;58703;48.978;8.982;2023-11-21T05:32:40;7.72;99.99
71047;SHT31;58703;48.978;8.982;2023-11-21T05:35:07;7.68;99.99
71047;SHT31;58703;48.978;8.982;2023-11-21T05:37:40;7.64;99.99
71047;SHT31;58703;48.978;8.982;2023-11-21T05:40:07;7.71;99.99
71047;SHT31;58703;48.978;8.982;2023-11-21T05:42:34;7.65;99.99
71047;SHT31;58703;48.978;8.982;2023-11-21T05:45:00;7.62;99.99
71047;SHT31;58703;48.978;8.982;2023-11-21T05:47:42;7.64;99.99
71047;SHT31;58703;48.978;8.982;2023-11-21T05:50:10;7.54;99.99
71047;SHT31;58703;48.978;8.982;2023-11-21T05:52:41;7.55;99.99
71047;SHT31;58703;48.978;8.982;2023-11-21T05:55:08;7.48;99.99
71047;SHT31;58703;48.978;8.982;2023-11-21T05:57:36;7.47;99.99
71047;SHT31;58703;48.978;8.982;2023-11-21T06:00:11;7.46;99.99
71047;SHT31;58703;48.978;8.982;2023-11-21T06:02:38;7.51;99.99
71047;SHT31;58703;48.978;8.982;2023-11-21T06:05:06;7.58;99.99
71047;SHT31;58703;48.978;8.982;2023-11-21T06:07:33;7.59;99.99
71047;SHT31;58703;48.978;8.982;2023-11-21T06:10:01;7.59;99.99
71047;SHT31;58703;48.978;8.982;2023-11-21T06:12:28;7.65;99.99
71047;SHT31;58703;48.978;8.982;2023-11-21T06:14:53;7.62;99.99
71047;SHT31;58703;48.978;8.982;2023-11-21T06:17:19;7.68;99.99
71047;SHT31;58703;48.978;8.982;2023-11-21T06:19:45;7.67;99.99
71047;SHT31;58703;48.978;8.982;2023-11-21T06:22:11;7.72;99.99
71047;SHT31;58703;48.978;8.982;2023-11-21T06:24:39;7.74;99.99
71047;SHT31;58703;48.978;8.982;2023-11-21T06:27:07;7.64;99.99
71047;SHT31;58703;48.978;8.982;2023-11-21T06:29:33;7.64;99.99
71047;SHT31;58703;48.978;8.982;2023-11-21T06:32:00;7.61;99.99
71047;SHT31;58703;48.978;8.982;2023-11-21T06:34:30;7.65;99.99
71047;SHT31;58703;48.978;8.982;2023-11-21T06:36:56;7.61;99.99
71047;SHT31;58703;48.978;8.982;2023-11-21T06:39:22;7.54;99.99
71047;SHT31;58703;48.978;8.982;2023-11-21T06:41:49;7.55;99.99
71047;SHT31;58703;48.978;8.982;2023-11-21T06:44:15;7.64;99.99
71047;SHT31;58703;48.978;8.982;2023-11-21T06:46:40;7.64;99.99
71047;SHT31;58703;48.978;8.982;2023-11-21T06:49:11;7.62;99.99
71047;SHT31;58703;48.978;8.982;2023-11-21T06:51:41;7.59;99.99
71047;SHT31;58703;48.978;8.982;2023-11-21T06:54:10;7.61;99.99
71047;SHT31;58703;48.978;8.982;2023-11-21T06:56:36;7.64;99.99
71047;SHT31;58703;48.978;8.982;2023-11-21T06:59:01;7.71;99.99
71047;SHT31;58703;48.978;8.982;2023-11-21T07:01:28;7.72;99.99
71047;SHT31;58703;48.978;8.982;2023-11-21T07:03:53;7.77;99.99
71047;SHT31;58703;48.978;8.982;2023-11-21T07:06:19;7.74;99.99
71047;SHT31;58703;48.978;8.982;2023-11-21T07:08:44;7.83;99.99
71047;SHT31;58703;48.978;8.982;2023-11-21T07:11:10;7.86;99.99
71047;SHT31;58703;48.978;8.982;2023-11-21T07:13:36;8.03;99.99
71047;SHT31;58703;48.978;8.982;2023-11-21T07:16:01;7.95;99.99
71047;SHT31;58703;48.978;8.982;2023-11-21T07:18:27;7.83;99.99
71047;SHT31;58703;48.978;8.982;2023-11-21T07:20:52;7.77;99.99
71047;SHT31;58703;48.978;8.982;2023-11-21T07:23:18;7.82;99.99
71047;SHT31;58703;48.978;8.982;2023-11-21T07:25:44;7.78;99.99
71047;SHT31;58703;48.978;8.982;2023-11-21T07:28:10;7.78;99.99
71047;SHT31;58703;48.978;8.982;2023-11-21T07:30:35;7.82;99.99
71047;SHT31;58703;48.978;8.982;2023-11-21T07:33:01;7.82;99.99
71047;SHT31;58703;48.978;8.982;2023-11-21T07:35:26;7.88;99.99
71047;SHT31;58703;48.978;8.982;2023-11-21T07:37:52;7.89;99.99
71047;SHT31;58703;48.978;8.982;2023-11-21T07:40:17;7.96;99.99
71047;SHT31;58703;48.978;8.982;2023-11-21T07:42:43;8.02;99.99
71047;SHT31;58703;48.978;8.982;2023-11-21T07:45:09;8.05;99.99
71047;SHT31;58703;48.978;8.982;2023-11-21T07:47:35;8.06;99.99
71047;SHT31;58703;48.978;8.982;2023-11-21T07:50:02;8.06;99.99
71047;SHT31;58703;48.978;8.982;2023-11-21T07:52:28;8.09;99.99
71047;SHT31;58703;48.978;8.982;2023-11-21T07:54:54;8.07;99.99
71047;SHT31;58703;48.978;8.982;2023-11-21T07:57:19;8.12;99.99
71047;SHT31;58703;48.978;8.982;2023-11-21T07:59:45;8.13;99.99
71047;SHT31;58703;48.978;8.982;2023-11-21T08:02:10;8.17;99.99
71047;SHT31;58703;48.978;8.982;2023-11-21T08:04:36;8.29;99.99
71047;SHT31;58703;48.978;8.982;2023-11-21T08:07:02;8.19;99.99
71047;SHT31;58703;48.978;8.982;2023-11-21T08:09:29;8.33;99.99
71047;SHT31;58703;48.978;8.982;2023-11-21T08:11:55;8.44;99.99
71047;SHT31;58703;48.978;8.982;2023-11-21T08:14:22;8.43;99.99
71047;SHT31;58703;48.978;8.982;2023-11-21T08:16:47;8.42;99.99
71047;SHT31;58703;48.978;8.982;2023-11-21T08:19:18;8.49;99.99
71047;SHT31;58703;48.978;8.982;2023-11-21T08:21:43;8.46;99.99
71047;SHT31;58703;48.978;8.982;2023-11-21T08:24:10;8.52;99.99
71047;SHT31;58703;48.978;8.982;2023-11-21T08:26:37;8.49;99.99
71047;SHT31;58703;48.978;8.982;2023-11-21T08:29:03;8.54;99.99
71047;SHT31;58703;48.978;8.982;2023-11-21T08:31:28;8.40;99.99
71047;SHT31;58703;48.978;8.982;2023-11-21T08:33:55;8.32;99.99
71047;SHT31;58703;48.978;8.982;2023-11-21T08:36:23;8.49;99.99
71047;SHT31;58703;48.978;8.982;2023-11-21T08:38:50;8.64;99.99
71047;SHT31;58703;48.978;8.982;2023-11-21T08:41:17;8.57;99.99
71047;SHT31;58703;48.978;8.982;2023-11-21T08:43:43;8.68;99.99
71047;SHT31;58703;48.978;8.982;2023-11-21T08:46:10;8.75;99.99
71047;SHT31;58703;48.978;8.982;2023-11-21T08:48:36;8.77;99.99
71047;SHT31;58703;48.978;8.982;2023-11-21T08:51:03;8.74;99.99
71047;SHT31;58703;48.978;8.982;2023-11-21T08:53:29;8.83;99.99
71047;SHT31;58703;48.978;8.982;2023-11-21T08:55:56;8.81;99.99
71047;SHT31;58703;48.978;8.982;2023-11-21T08:58:22;8.78;99.99
71047;SHT31;58703;48.978;8.982;2023-11-21T09:00:47;8.89;99.99
71047;SHT31;58703;48.978;8.982;2023-11-21T09:03:13;8.88;99.99
71047;SHT31;58703;48.978;8.982;2023-11-21T09:05:39;8.83;99.99
71047;SHT31;58703;48.978;8.982;2023-11-21T09:08:05;9.00;99.99
71047;SHT31;58703;48.978;8.982;2023-11-21T09:10:33;8.95;99.99
71047;SHT31;58703;48.978;8.982;2023-11-21T09:13:01;8.80;99.99
71047;SHT31;58703;48.978;8.982;2023-11-21T09:15:27;9.12;99.99
71047;SHT31;58703;48.978;8.982;2023-11-21T09:17:53;9.31;99.99
71047;SHT31;58703;48.978;8.982;2023-11-21T09:20:21;9.46;99.99
71047;SHT31;58703;48.978;8.982;2023-11-21T09:22:49;9.49;99.99
71047;SHT31;58703;48.978;8.982;2023-11-21T09:25:14;9.60;99.99
71047;SHT31;58703;48.978;8.982;2023-11-21T09:27:40;9.60;99.99
71047;SHT31;58703;48.978;8.982;2023-11-21T09:30:07;9.60;99.99
71047;SHT31;58703;48.978;8.982;2023-11-21T09:32:38;9.83;99.99
71047;SHT31;58703;48.978;8.982;2023-11-21T09:35:04;9.60;99.99
71047;SHT31;58703;48.978;8.982;2023-11-21T09:37:31;9.67;99.99
71047;SHT31;58703;48.978;8.982;2023-11-21T09:39:57;9.67;99.99
71047;SHT31;58703;48.978;8.982;2023-11-21T09:42:46;9.62;99.91
71047;SHT31;58703;48.978;8.982;2023-11-21T09:45:28;9.58;99.99
71047;SHT31;58703;48.978;8.982;2023-11-21T09:47:55;9.72;99.99
71047;SHT31;58703;48.978;8.982;2023-11-21T09:50:22;9.62;99.88
71047;SHT31;58703;48.978;8.982;2023-11-21T09:53:17;9.53;99.98
71047;SHT31;58703;48.978;8.982;2023-11-21T09:55:44;9.36;99.99
71047;SHT31;58703;48.978;8.982;2023-11-21T09:58:10;9.52;99.99
71047;SHT31;58703;48.978;8.982;2023-11-21T10:00:46;9.38;99.99
71047;SHT31;58703;48.978;8.982;2023-11-21T10:03:12;9.38;99.99
71047;SHT31;58703;48.978;8.982;2023-11-21T10:05:39;9.24;99.99
71047;SHT31;58703;48.978;8.982;2023-11-21T10:08:08;9.39;99.99
71047;SHT31;58703;48.978;8.982;2023-11-21T10:10:36;9.34;99.99
71047;SHT31;58703;48.978;8.982;2023-11-21T10:13:04;9.52;99.84
71047;SHT31;58703;48.978;8.982;2023-11-21T10:15:36;9.65;99.93
71047;SHT31;58703;48.978;8.982;2023-11-21T10:18:06;9.65;99.99
71047;SHT31;58703;48.978;8.982;2023-11-21T10:20:33;9.55;99.99
71047;SHT31;58703;48.978;8.982;2023-11-21T10:23:09;9.62;99.99
71047;SHT31;58703;48.978;8.982;2023-11-21T10:25:37;9.63;99.99
71047;SHT31;58703;48.978;8.982;2023-11-21T10:28:03;9.40;99.99
71047;SHT31;58703;48.978;8.982;2023-11-21T10:30:39;9.34;99.99
71047;SHT31;58703;48.978;8.982;2023-11-21T10:33:06;9.21;99.99
71047;SHT31;58703;48.978;8.982;2023-11-21T10:35:48;9.19;99.99
71047;SHT31;58703;48.978;8.982;2023-11-21T10:38:19;9.22;99.99
71047;SHT31;58703;48.978;8.982;2023-11-21T10:40:48;9.34;99.99
71047;SHT31;58703;48.978;8.982;2023-11-21T10:43:17;9.26;99.99
71047;SHT31;58703;48.978;8.982;2023-11-21T10:45:44;9.38;99.99
71047;SHT31;58703;48.978;8.982;2023-11-21T10:48:12;9.49;99.99
71047;SHT31;58703;48.978;8.982;2023-11-21T10:50:46;9.67;99.99
71047;SHT31;58703;48.978;8.982;2023-11-21T10:53:11;9.69;99.97
71047;SHT31;58703;48.978;8.982;2023-11-21T10:55:40;9.86;99.99
71047;SHT31;58703;48.978;8.982;2023-11-21T10:58:06;9.86;99.90
71047;SHT31;58703;48.978;8.982;2023-11-21T11:00:33;9.77;99.07
71047;SHT31;58703;48.978;8.982;2023-11-21T11:03:00;9.99;99.99
71047;SHT31;58703;48.978;8.982;2023-11-21T11:05:31;10.10;99.99
71047;SHT31;58703;48.978;8.982;2023-11-21T11:08:05;10.06;99.81
71047;SHT31;58703;48.978;8.982;2023-11-21T11:10:32;10.27;98.78
71047;SHT31;58703;48.978;8.982;2023-11-21T11:13:00;10.52;98.33
71047;SHT31;58703;48.978;8.982;2023-11-21T11:15:27;10.92;98.30
71047;SHT31;58703;48.978;8.982;2023-11-21T11:17:54;11.11;95.64
71047;SHT31;58703;48.978;8.982;2023-11-21T11:20:25;11.39;90.69
71047;SHT31;58703;48.978;8.982;2023-11-21T11:23:09;12.24;92.11
71047;SHT31;58703;48.978;8.982;2023-11-21T11:29:21;12.26;90.84
71047;SHT31;58703;48.978;8.982;2023-11-21T11:31:55;11.49;92.09
71047;SHT31;58703;48.978;8.982;2023-11-21T11:34:32;10.82;93.17
71047;SHT31;58703;48.978;8.982;2023-11-21T11:37:01;10.72;94.72
71047;SHT31;58703;48.978;8.982;2023-11-21T11:39:37;10.48;95.56
71047;SHT31;58703;48.978;8.982;2023-11-21T11:42:07;10.34;96.98
71047;SHT31;58703;48.978;8.982;2023-11-21T11:50:10;10.36;97.80
71047;SHT31;58703;48.978;8.982;2023-11-21T11:55:15;10.48;96.10
71047;SHT31;58703;48.978;8.982;2023-11-21T11:57:45;10.47;95.32
71047;SHT31;58703;48.978;8.982;2023-11-21T12:00:17;10.24;96.14
71047;SHT31;58703;48.978;8.982;2023-11-21T12:02:54;10.40;95.98
71047;SHT31;58703;48.978;8.982;2023-11-21T12:05:21;10.30;96.71
71047;SHT31;58703;48.978;8.982;2023-11-21T12:07:52;10.09;96.32
71047;SHT31;58703;48.978;8.982;2023-11-21T12:10:24;10.10;96.27
71047;SHT31;58703;48.978;8.982;2023-11-21T12:15:18;10.11;95.95
71047;SHT31;58703;48.978;8.982;2023-11-21T12:17:45;10.07;95.46
71047;SHT31;58703;48.978;8.982;2023-11-21T12:20:12;9.99;95.68
71047;SHT31;58703;48.978;8.982;2023-11-21T12:22:46;10.22;95.93
71047;SHT31;58703;48.978;8.982;2023-11-21T12:25:16;10.16;93.45
71047;SHT31;58703;48.978;8.982;2023-11-21T12:27:45;10.31;93.74
71047;SHT31;58703;48.978;8.982;2023-11-21T12:30:12;10.47;92.87
71047;SHT31;58703;48.978;8.982;2023-11-21T12:32:52;10.61;93.86
71047;SHT31;58703;48.978;8.982;2023-11-21T12:35:25;10.62;94.08
71047;SHT31;58703;48.978;8.982;2023-11-21T12:37:51;10.78;95.32
71047;SHT31;58703;48.978;8.982;2023-11-21T12:40:17;10.41;94.46
71047;SHT31;58703;48.978;8.982;2023-11-21T12:42:48;10.36;94.48
71047;SHT31;58703;48.978;8.982;2023-11-21T12:47:43;10.25;95.20
71047;SHT31;58703;48.978;8.982;2023-11-21T12:50:09;10.22;95.91
71047;SHT31;58703;48.978;8.982;2023-11-21T12:52:44;10.22;97.31
71047;SHT31;58703;48.978;8.982;2023-11-21T12:55:18;10.18;96.94
71047;SHT31;58703;48.978;8.982;2023-11-21T12:57:48;10.24;96.16
71047;SHT31;58703;48.978;8.982;2023-11-21T13:00:16;10.34;97.35
71047;SHT31;58703;48.978;8.982;2023-11-21T13:02:53;10.42;95.81
71047;SHT31;58703;48.978;8.982;2023-11-21T13:05:35;10.52;96.91
71047;SHT31;58703;48.978;8.982;2023-11-21T13:08:05;10.61;95.55
71047;SHT31;58703;48.978;8.982;2023-11-21T13:10:36;10.55;95.80
71047;SHT31;58703;48.978;8.982;2023-11-21T13:13:03;10.61;94.91
71047;SHT31;58703;48.978;8.982;2023-11-21T13:15:31;10.50;94.40
71047;SHT31;58703;48.978;8.982;2023-11-21T13:17:58;10.10;93.39
71047;SHT31;58703;48.978;8.982;2023-11-21T13:20:26;10.20;93.86
71047;SHT31;58703;48.978;8.982;2023-11-21T13:22:54;10.36;94.48
71047;SHT31;58703;48.978;8.982;2023-11-21T13:25:29;10.48;93.59
71047;SHT31;58703;48.978;8.982;2023-11-21T13:27:57;10.52;93.17
71047;SHT31;58703;48.978;8.982;2023-11-21T13:30:25;10.37;94.40
71047;SHT31;58703;48.978;8.982;2023-11-21T13:33:02;10.28;94.78
71047;SHT31;58703;48.978;8.982;2023-11-21T13:35:32;10.09;93.29
71047;SHT31;58703;48.978;8.982;2023-11-21T13:38:07;10.00;94.38
71047;SHT31;58703;48.978;8.982;2023-11-21T13:40:35;9.93;96.05
71047;SHT31;58703;48.978;8.982;2023-11-21T13:43:09;9.50;97.93
71047;SHT31;58703;48.978;8.982;2023-11-21T13:45:44;9.12;98.32
71047;SHT31;58703;48.978;8.982;2023-11-21T13:48:12;8.87;96.71
71047;SHT31;58703;48.978;8.982;2023-11-21T13:50:45;8.73;99.33
71047;SHT31;58703;48.978;8.982;2023-11-21T13:53:34;8.67;99.99
71047;SHT31;58703;48.978;8.982;2023-11-21T13:56:03;8.70;99.99
71047;SHT31;58703;48.978;8.982;2023-11-21T13:58:29;8.73;99.99
71047;SHT31;58703;48.978;8.982;2023-11-21T14:01:10;8.73;99.99
71047;SHT31;58703;48.978;8.982;2023-11-21T14:04:11;8.67;99.86
71047;SHT31;58703;48.978;8.982;2023-11-21T14:06:51;8.68;99.99
71047;SHT31;58703;48.978;8.982;2023-11-21T14:09:19;8.68;99.99
71047;SHT31;58703;48.978;8.982;2023-11-21T14:11:52;8.68;99.49
71047;SHT31;58703;48.978;8.982;2023-11-21T14:14:25;8.70;99.95
71047;SHT31;58703;48.978;8.982;2023-11-21T14:16:54;8.70;99.93
71047;SHT31;58703;48.978;8.982;2023-11-21T14:19:21;8.75;99.99
71047;SHT31;58703;48.978;8.982;2023-11-21T14:21:47;8.74;99.99
71047;SHT31;58703;48.978;8.982;2023-11-21T14:24:16;8.80;99.99
71047;SHT31;58703;48.978;8.982;2023-11-21T14:26:46;8.77;99.99
71047;SHT31;58703;48.978;8.982;2023-11-21T14:29:12;8.78;99.99
71047;SHT31;58703;48.978;8.982;2023-11-21T14:31:40;8.81;99.99
71047;SHT31;58703;48.978;8.982;2023-11-21T14:34:09;8.85;99.99
71047;SHT31;58703;48.978;8.982;2023-11-21T14:36:36;8.84;99.76
71047;SHT31;58703;48.978;8.982;2023-11-21T14:39:05;8.88;99.70
71047;SHT31;58703;48.978;8.982;2023-11-21T14:41:35;8.85;99.99
71047;SHT31;58703;48.978;8.982;2023-11-21T14:44:02;8.87;99.99
71047;SHT31;58703;48.978;8.982;2023-11-21T14:46:30;8.88;99.96
71047;SHT31;58703;48.978;8.982;2023-11-21T14:48:56;8.92;99.99
71047;SHT31;58703;48.978;8.982;2023-11-21T14:51:32;8.92;99.99
71047;SHT31;58703;48.978;8.982;2023-11-21T14:54:16;8.87;99.61
71047;SHT31;58703;48.978;8.982;2023-11-21T14:56:51;8.84;99.99
71047;SHT31;58703;48.978;8.982;2023-11-21T14:59:18;8.80;99.92
71047;SHT31;58703;48.978;8.982;2023-11-21T15:01:43;8.78;99.13
71047;SHT31;58703;48.978;8.982;2023-11-21T15:04:22;8.83;98.97
71047;SHT31;58703;48.978;8.982;2023-11-21T15:07:04;8.84;98.96
71047;SHT31;58703;48.978;8.982;2023-11-21T15:09:30;8.81;99.42
71047;SHT31;58703;48.978;8.982;2023-11-21T15:11:59;8.75;99.83
71047;SHT31;58703;48.978;8.982;2023-11-21T15:14:42;8.63;99.97
71047;SHT31;58703;48.978;8.982;2023-11-21T15:17:08;8.54;99.99
71047;SHT31;58703;48.978;8.982;2023-11-21T15:19:34;8.50;99.99
71047;SHT31;58703;48.978;8.982;2023-11-21T15:22:01;8.40;99.99
71047;SHT31;58703;48.978;8.982;2023-11-21T15:24:27;8.34;99.99
71047;SHT31;58703;48.978;8.982;2023-11-21T15:26:54;8.19;99.99
71047;SHT31;58703;48.978;8.982;2023-11-21T15:29:19;8.02;99.99
71047;SHT31;58703;48.978;8.982;2023-11-21T15:31:48;7.91;99.99
71047;SHT31;58703;48.978;8.982;2023-11-21T15:34:14;7.78;99.99
71047;SHT31;58703;48.978;8.982;2023-11-21T15:36:40;7.77;99.99
71047;SHT31;58703;48.978;8.982;2023-11-21T15:39:06;7.65;99.99
71047;SHT31;58703;48.978;8.982;2023-11-21T15:41:32;7.55;99.99
71047;SHT31;58703;48.978;8.982;2023-11-21T15:43:58;7.44;99.99
71047;SHT31;58703;48.978;8.982;2023-11-21T15:46:23;7.26;99.99
71047;SHT31;58703;48.978;8.982;2023-11-21T15:48:49;7.26;99.99
71047;SHT31;58703;48.978;8.982;2023-11-21T15:51:18;7.16;99.99
71047;SHT31;58703;48.978;8.982;2023-11-21T15:53:44;7.04;99.99
71047;SHT31;58703;48.978;8.982;2023-11-21T15:56:10;6.96;99.99
71047;SHT31;58703;48.978;8.982;2023-11-21T15:58:41;6.89;99.99
71047;SHT31;58703;48.978;8.982;2023-11-21T16:01:11;6.83;99.99
71047;SHT31;58703;48.978;8.982;2023-11-21T16:03:38;6.75;99.99
71047;SHT31;58703;48.978;8.982;2023-11-21T16:06:04;6.65;99.99